Map

Track Data

SID SEASON NUMBER BASIN SUBBASIN NAME ISO_TIME NATURE LAT LON WMO_WIND WMO_PRES WMO_AGENCY TRACK_TYPE DIST2LAND LANDFALL IFLAG USA_AGENCY USA_ATCF_ID USA_LAT USA_LON USA_RECORD USA_STATUS USA_WIND USA_PRES USA_SSHS USA_R34_NE USA_R34_SE USA_R34_SW USA_R34_NW USA_R50_NE USA_R50_SE USA_R50_SW USA_R50_NW USA_R64_NE USA_R64_SE USA_R64_SW USA_R64_NW USA_POCI USA_ROCI USA_RMW USA_EYE TOKYO_LAT TOKYO_LON TOKYO_GRADE TOKYO_WIND TOKYO_PRES TOKYO_R50_DIR TOKYO_R50_LONG TOKYO_R50_SHORT TOKYO_R30_DIR TOKYO_R30_LONG TOKYO_R30_SHORT TOKYO_LAND CMA_LAT CMA_LON CMA_CAT CMA_WIND CMA_PRES HKO_LAT HKO_LON HKO_CAT HKO_WIND HKO_PRES NEWDELHI_LAT NEWDELHI_LON NEWDELHI_GRADE NEWDELHI_WIND NEWDELHI_PRES NEWDELHI_CI NEWDELHI_DP NEWDELHI_POCI REUNION_LAT REUNION_LON REUNION_TYPE REUNION_WIND REUNION_PRES REUNION_TNUM REUNION_CI REUNION_RMW REUNION_R34_NE REUNION_R34_SE REUNION_R34_SW REUNION_R34_NW REUNION_R50_NE REUNION_R50_SE REUNION_R50_SW REUNION_R50_NW REUNION_R64_NE REUNION_R64_SE REUNION_R64_SW REUNION_R64_NW BOM_LAT BOM_LON BOM_TYPE BOM_WIND BOM_PRES BOM_TNUM BOM_CI BOM_RMW BOM_R34_NE BOM_R34_SE BOM_R34_SW BOM_R34_NW BOM_R50_NE BOM_R50_SE BOM_R50_SW BOM_R50_NW BOM_R64_NE BOM_R64_SE BOM_R64_SW BOM_R64_NW BOM_ROCI BOM_POCI BOM_EYE BOM_POS_METHOD BOM_PRES_METHOD NADI_LAT NADI_LON NADI_CAT NADI_WIND NADI_PRES WELLINGTON_LAT WELLINGTON_LON WELLINGTON_WIND WELLINGTON_PRES DS824_LAT DS824_LON DS824_STAGE DS824_WIND DS824_PRES TD9636_LAT TD9636_LON TD9636_STAGE TD9636_WIND TD9636_PRES TD9635_LAT TD9635_LON TD9635_WIND TD9635_PRES TD9635_ROCI NEUMANN_LAT NEUMANN_LON NEUMANN_CLASS NEUMANN_WIND NEUMANN_PRES MLC_LAT MLC_LON MLC_CLASS MLC_WIND MLC_PRES USA_GUST BOM_GUST BOM_GUST_PER REUNION_GUST REUNION_GUST_PER USA_SEAHGT USA_SEARAD_NE USA_SEARAD_SE USA_SEARAD_SW USA_SEARAD_NW STORM_SPEED STORM_DIR
2018363S12145 2019 115 SP EA PENNY 2018-12-28 12:00:00 NR -11.5000 144.800 main 183 166 O_____________ jtwc_sh SH082019 -11.5000 144.800 DB 15 1004 -3 1010 160 55 4 204
2018363S12145 2019 115 SP EA PENNY 2018-12-28 15:00:00 NR -11.7050 144.710 main 166 152 P_____________ SH082019 -11.7050 144.710 DB 20 1002 -3 1007 160 55 4 206
2018363S12145 2019 115 SP EA PENNY 2018-12-28 18:00:00 TS -11.9000 144.600 main 152 132 O_____________ jtwc_sh SH082019 -11.9000 144.600 TD 25 1001 -1 1004 160 55 4 214
2018363S12145 2019 115 SP EA PENNY 2018-12-28 21:00:00 TS -12.0725 144.458 main 132 107 P_____________ SH082019 -12.0725 144.458 TD 25 1001 -1 1004 160 55 4 224
2018363S12145 2019 115 SP EA PENNY 2018-12-29 00:00:00 TS -12.2000 144.300 main 107 88 O_____________ jtwc_sh SH082019 -12.2000 144.300 TD 25 1001 -1 1004 160 55 4 243
2018363S12145 2019 115 SP EA PENNY 2018-12-29 03:00:00 TS -12.2425 144.120 main 88 73 P_____________ SH082019 -12.2425 144.120 TD 20 1002 -1 1003 152 55 3 251
2018363S12145 2019 115 SP EA PENNY 2018-12-29 06:00:00 NR -12.3000 144.000 main 73 66 O_____________ jtwc_sh SH082019 -12.3000 144.000 DB 15 1003 -3 1003 145 55 3 202
2018363S12145 2019 115 SP EA PENNY 2018-12-29 09:00:00 NR -12.4775 144.020 main 66 63 P_____________ SH082019 -12.4775 144.020 DB 20 1001 -3 1003 145 55 4 167
2018363S12145 2019 115 SP EA PENNY 2018-12-29 12:00:00 TS -12.7000 144.100 main 68 66 O_____________ jtwc_sh SH082019 -12.7000 144.100 TD 25 1000 -1 1003 145 55 5 160
2018363S12145 2019 115 SP EA PENNY 2018-12-29 15:00:00 TS -12.9150 144.180 main 75 73 P_____________ SH082019 -12.9150 144.180 TD 25 1000 -1 1003 152 55 4 167
2018363S12145 2019 115 SP EA PENNY 2018-12-29 18:00:00 TS -13.1000 144.200 main 73 58 O_____________ jtwc_sh SH082019 -13.1000 144.200 TD 25 1000 -1 1004 160 55 3 186
2018363S12145 2019 115 SP EA PENNY 2018-12-29 21:00:00 TS -13.2373 144.133 main 58 34 P_____________ SH082019 -13.2373 144.133 TD 25 1000 -1 1004 160 55 4 236
2018363S12145 2019 115 SP EA PENNY 2018-12-30 00:00:00 TS -13.3000 143.900 main 34 0 O_____________ jtwc_sh SH082019 -13.3000 143.900 TD 25 1001 -1 1004 160 55 6 267
2018363S12145 2019 115 SP EA PENNY 2018-12-30 03:00:00 TS -13.2725 143.467 main 0 0 P_____________ SH082019 -13.2725 143.467 TD 25 1001 -1 1004 160 50 10 276
2018363S12145 2019 115 SP EA PENNY 2018-12-30 06:00:00 TS -13.2000 142.900 main 0 0 O_____________ jtwc_sh SH082019 -13.2000 142.900 TD 25 1001 -1 1004 160 45 11 277
2018363S12145 2019 115 SP EA PENNY 2018-12-30 09:00:00 TS -13.1425 142.307 main 0 0 P_____________ SH082019 -13.1425 142.307 TD 25 1001 -1 1004 160 45 12 275
2018363S12145 2019 115 SP EA PENNY 2018-12-30 12:00:00 TS -13.1000 141.700 main 0 0 O_____________ jtwc_sh SH082019 -13.1000 141.700 TD 25 1002 -1 1004 160 45 12 272
2018363S12145 2019 115 SP EA PENNY 2018-12-30 15:00:00 TS -13.1074 141.128 main 55 55 P_____________ SH082019 -13.1074 141.128 TD 27 1001 -1 1003 160 45 11 270
2018363S12145 2019 115 SP EA PENNY 2018-12-30 18:00:00 TS -13.1000 140.600 main 108 108 O_____________ jtwc_sh SH082019 -13.1000 140.600 TD 30 1000 -1 1002 160 45 10 274
2018363S12145 2019 115 SP EA PENNY 2018-12-30 21:00:00 TS -13.0301 140.067 main 162 162 P_____________ SH082019 -13.0301 140.067 TD 30 1000 -1 1003 165 45 9 283
2018363S12145 2019 115 SP EA PENNY 2018-12-31 00:00:00 TS -12.9000 139.700 main 206 206 O_____________ jtwc_sh SH082019 -12.9000 139.700 TD 30 1000 -1 1005 170 45 6 308
2018363S12145 2019 115 SP EA PENNY 2018-12-31 03:00:00 TS -12.6773 139.595 main 217 206 P_____________ SH082019 -12.6773 139.595 TD 35 998 0 57 47 40 67 1005 175 42 4 0
2018363S12145 2019 115 SP EA PENNY 2018-12-31 06:00:00 TS -12.5000 139.700 main 206 184 O_____________ jtwc_sh SH082019 -12.5000 139.700 TS 40 996 0 115 95 80 135 1005 180 40 4 62
2018363S12145 2019 115 SP EA PENNY 2018-12-31 09:00:00 TS -12.5126 139.920 main 184 152 P_____________ SH082019 -12.5126 139.920 TS 40 996 0 112 85 85 127 1003 170 37 5 102
2018363S12145 2019 115 SP EA PENNY 2018-12-31 12:00:00 TS -12.6000 140.200 main 152 130 O_____________ jtwc_sh SH082019 -12.6000 140.200 TS 40 996 0 110 75 90 120 1002 160 35 5 107
2018363S12145 2019 115 SP EA PENNY 2018-12-31 15:00:00 TS -12.6574 140.400 main 130 109 P_____________ SH082019 -12.6574 140.400 TS 40 995 0 132 112 92 122 1002 165 35 4 104
2018363S12145 2019 115 SP EA PENNY 2018-12-31 18:00:00 TS -12.7000 140.600 main 109 87 O_____________ jtwc_sh SH082019 -12.7000 140.600 TS 40 995 0 155 150 95 125 1003 170 35 4 96
2018363S12145 2019 115 SP EA PENNY 2018-12-31 21:00:00 TS -12.6999 140.813 main 87 55 P_____________ SH082019 -12.6999 140.813 TS 42 994 0 135 115 110 125 1004 185 35 5 90
2018363S12145 2019 115 SP EA PENNY 2019-01-01 00:00:00 TS -12.7000 141.100 main 55 15 O_____________ jtwc_sh SH082019 -12.7000 141.100 TS 45 993 0 115 80 125 125 1005 200 35 7 94
2018363S12145 2019 115 SP EA PENNY 2019-01-01 03:00:00 TS -12.7426 141.527 main 15 0 P_____________ SH082019 -12.7426 141.527 TS 45 993 0 107 70 102 102 1003 162 35 9 97
2018363S12145 2019 115 SP EA PENNY 2019-01-01 06:00:00 TS -12.8000 142.000 main 0 0 O_____________ jtwc_sh SH082019 -12.8000 142.000 TS 45 993 0 100 60 80 80 1001 125 35 9 98
2018363S12145 2019 115 SP EA PENNY 2019-01-01 09:00:00 TS -12.8574 142.400 main 0 0 P_____________ SH082019 -12.8574 142.400 TS 42 994 0 107 65 85 90 1002 135 35 8 97
2018363S12145 2019 115 SP EA PENNY 2019-01-01 12:00:00 TS -12.9000 142.800 main 0 0 O_____________ jtwc_sh SH082019 -12.9000 142.800 TS 40 996 0 115 70 90 100 1004 145 35 8 94
2018363S12145 2019 115 SP EA PENNY 2019-01-01 15:00:00 TS -12.9074 143.235 main 0 0 P_____________ SH082019 -12.9074 143.235 TS 35 996 0 57 35 45 50 1003 147 35 9 90
2018363S12145 2019 115 SP EA PENNY 2019-01-01 18:00:00 TS -12.9000 143.700 main 21 21 O_____________ jtwc_sh SH082019 -12.9000 143.700 TD 30 996 -1 1003 150 35 9 89
2018363S12145 2019 115 SP EA PENNY 2019-01-01 21:00:00 TS -12.8848 144.163 main 75 75 P_____________ SH082019 -12.8848 144.163 TD 35 995 0 55 1003 157 35 10 90
2018363S12145 2019 115 SP EA PENNY 2019-01-02 00:00:00 TS -12.9000 144.700 main 130 130 O_____________ jtwc_sh SH082019 -12.9000 144.700 TS 40 995 0 110 1004 165 35 12 95
2018363S12145 2019 115 SP EA PENNY 2019-01-02 03:00:00 TS -12.9848 145.340 main 169 169 P_____________ SH082019 -12.9848 145.340 TS 40 994 0 117 1003 147 35 14 98
2018363S12145 2019 115 SP EA PENNY 2019-01-02 06:00:00 TS -13.1000 146.100 main 217 217 O_____________ jtwc_sh SH082019 -13.1000 146.100 TS 40 994 0 80 125 1002 130 35 16 98
2018363S12145 2019 115 SP EA PENNY 2019-01-02 09:00:00 TS -13.1921 146.940 main 264 264 P_____________ SH082019 -13.1921 146.940 TS 42 993 0 127 150 1002 132 40 18 97
2018363S12145 2019 115 SP EA PENNY 2019-01-02 12:00:00 TS -13.3000 147.900 main 338 331 O_____________ jtwc_sh SH082019 -13.3000 147.900 TS 45 992 0 175 110 125 175 1003 135 45 20 96
2018363S12145 2019 115 SP EA PENNY 2019-01-02 15:00:00 TS -13.4124 148.970 main 328 316 P_____________ SH082019 -13.4124 148.970 TS 45 992 0 175 110 125 175 1003 167 45 22 98
2018363S12145 2019 115 SP EA PENNY 2019-01-02 18:00:00 TS -13.6000 150.100 main 324 324 O_____________ jtwc_sh SH082019 -13.6000 150.100 TS 45 992 0 175 110 125 175 1003 200 45 23 103
2018363S12145 2019 115 SP EA PENNY 2019-01-02 21:00:00 TS -13.9277 151.259 main 371 371 P_____________ SH082019 -13.9277 151.259 TS 45 993 0 170 105 125 170 1003 200 45 23 108
2018363S12145 2019 115 SP EA PENNY 2019-01-03 00:00:00 TS -14.3000 152.300 main 449 449 O_____________ jtwc_sh SH082019 -14.3000 152.300 TS 45 995 0 165 100 125 165 1003 200 45 19 111
2018363S12145 2019 115 SP EA PENNY 2019-01-03 03:00:00 TS -14.6218 153.083 main 518 518 P_____________ SH082019 -14.6218 153.083 TS 45 993 0 165 105 125 152 1003 205 45 15 114
2018363S12145 2019 115 SP EA PENNY 2019-01-03 06:00:00 TS -14.9000 153.700 main 581 581 O_____________ jtwc_sh SH082019 -14.9000 153.700 TS 45 992 0 165 110 125 140 1004 210 45 13 113
2018363S12145 2019 115 SP EA PENNY 2019-01-03 09:00:00 TS -15.1149 154.303 main 637 637 P_____________ SH082019 -15.1149 154.303 TS 47 991 0 140 120 125 112 1005 207 37 11 111
2018363S12145 2019 115 SP EA PENNY 2019-01-03 12:00:00 TS -15.3000 154.800 main 688 688 O_____________ jtwc_sh SH082019 -15.3000 154.800 TS 50 990 0 115 130 125 85 15 25 30 20 1006 205 30 10 114
2018363S12145 2019 115 SP EA PENNY 2019-01-03 15:00:00 TS -15.5074 155.203 main 733 733 P_____________ SH082019 -15.5074 155.203 TS 52 988 0 115 105 125 105 35 35 37 37 1006 205 30 8 121
2018363S12145 2019 115 SP EA PENNY 2019-01-03 18:00:00 TS -15.7000 155.500 main 772 772 O_____________ jtwc_sh SH082019 -15.7000 155.500 TS 55 987 0 115 80 125 125 55 45 45 55 1006 205 30 6 125
2018363S12145 2019 115 SP EA PENNY 2019-01-03 21:00:00 TS -15.8799 155.745 main 803 803 P_____________ SH082019 -15.8799 155.745 TS 55 987 0 115 80 125 125 47 40 45 50 1006 205 30 5 128
2018363S12145 2019 115 SP EA PENNY 2019-01-04 00:00:00 TS -16.0000 155.900 main 812 807 O_____________ jtwc_sh SH082019 -16.0000 155.900 TS 55 987 0 115 80 125 125 40 35 45 45 1006 205 30 3 120
2018363S12145 2019 115 SP EA PENNY 2019-01-04 03:00:00 TS -16.0150 155.988 main 807 807 P_____________ SH082019 -16.0150 155.988 TS 52 988 0 122 97 125 125 27 25 27 27 1005 222 30 1 90
2018363S12145 2019 115 SP EA PENNY 2019-01-04 06:00:00 TS -16.0000 156.000 main 807 807 O_____________ jtwc_sh SH082019 -16.0000 156.000 TS 50 990 0 130 115 125 125 15 15 10 10 1005 240 30 1 207
2018363S12145 2019 115 SP EA PENNY 2019-01-04 09:00:00 TS -16.0650 155.965 main 816 816 P_____________ SH082019 -16.0650 155.965 TS 47 991 0 115 132 150 117 1006 240 37 1 223
2018363S12145 2019 115 SP EA PENNY 2019-01-04 12:00:00 TS -16.1000 155.900 main 822 812 O_____________ jtwc_sh SH082019 -16.1000 155.900 TS 45 992 0 100 150 175 110 1007 240 45 1 292
2018363S12145 2019 115 SP EA PENNY 2019-01-04 15:00:00 TS -16.0150 155.842 main 818 809 P_____________ SH082019 -16.0150 155.842 TS 45 992 0 100 147 172 110 1007 212 45 2 333
2018363S12145 2019 115 SP EA PENNY 2019-01-04 18:00:00 TS -15.9000 155.800 main 809 799 O_____________ jtwc_sh SH082019 -15.9000 155.800 TS 45 992 0 100 145 170 110 1007 185 45 2 342
2018363S12145 2019 115 SP EA PENNY 2019-01-04 21:00:00 TS -15.8350 155.778 main 799 799 P_____________ SH082019 -15.8350 155.778 TS 42 992 0 100 132 132 105 1006 185 45 1 0
2018363S12145 2019 115 SP EA PENNY 2019-01-05 00:00:00 TS -15.8000 155.800 main 799 793 O_____________ jtwc_sh SH082019 -15.8000 155.800 TS 40 993 0 100 120 95 100 1005 185 45 1 66
2018363S12145 2019 115 SP EA PENNY 2019-01-05 03:00:00 TS -15.7850 155.893 main 793 788 P_____________ SH082019 -15.7850 155.893 TS 40 993 0 107 100 95 100 1004 185 47 2 90
2018363S12145 2019 115 SP EA PENNY 2019-01-05 06:00:00 TS -15.8000 156.000 main 788 782 O_____________ jtwc_sh SH082019 -15.8000 156.000 TS 40 993 0 115 80 95 100 1003 185 50 2 97
2018363S12145 2019 115 SP EA PENNY 2019-01-05 09:00:00 TS -15.8050 156.072 main 782 782 P_____________ SH082019 -15.8050 156.072 TS 40 993 0 115 80 97 95 1004 190 50 1 137
2018363S12145 2019 115 SP EA PENNY 2019-01-05 12:00:00 TS -15.9000 156.100 main 792 792 O_____________ jtwc_sh SH082019 -15.9000 156.100 TS 40 994 0 115 80 100 90 1005 195 50 4 171
2018363S12145 2019 115 SP EA PENNY 2019-01-05 15:00:00 TS -16.1698 156.125 main 821 821 P_____________ SH082019 -16.1698 156.125 TS 42 993 0 82 80 112 75 1005 195 50 6 189
2018363S12145 2019 115 SP EA PENNY 2019-01-05 18:00:00 TS -16.5000 156.000 main 855 809 O_____________ jtwc_sh SH082019 -16.5000 156.000 TS 45 992 0 50 80 125 60 1005 195 50 8 221
2018363S12145 2019 115 SP EA PENNY 2019-01-05 21:00:00 TS -16.7954 155.565 main 809 759 P_____________ SH082019 -16.7954 155.565 TS 45 992 0 42 87 127 65 1005 197 50 10 240
2018363S12145 2019 115 SP EA PENNY 2019-01-06 00:00:00 TS -17.0000 155.100 main 759 741 O_____________ jtwc_sh SH082019 -17.0000 155.100 TS 45 992 0 35 95 130 70 1005 200 50 7 249
2018363S12145 2019 115 SP EA PENNY 2019-01-06 03:00:00 TS -17.0373 154.905 main 741 731 P_____________ SH082019 -17.0373 154.905 TS 42 993 0 42 95 127 75 1004 200 50 3 270
2018363S12145 2019 115 SP EA PENNY 2019-01-06 06:00:00 TS -17.0000 154.800 main 731 722 O_____________ jtwc_sh SH082019 -17.0000 154.800 TS 40 995 0 50 95 125 80 1003 200 50 2 288
2018363S12145 2019 115 SP EA PENNY 2019-01-06 09:00:00 TS -16.9624 154.665 main 722 704 P_____________ SH082019 -16.9624 154.665 TS 37 995 0 130 115 1004 190 50 3 270
2018363S12145 2019 115 SP EA PENNY 2019-01-06 12:00:00 TS -17.0000 154.500 main 704 674 O_____________ jtwc_sh SH082019 -17.0000 154.500 TS 35 996 0 135 150 1005 180 50 4 234
2018363S12145 2019 115 SP EA PENNY 2019-01-06 15:00:00 TS -17.2199 154.295 main 674 630 P_____________ SH082019 -17.2199 154.295 TS 35 996 0 137 85 1005 185 50 7 224
2018363S12145 2019 115 SP EA PENNY 2019-01-06 18:00:00 TS -17.5000 154.000 main 630 582 O_____________ jtwc_sh SH082019 -17.5000 154.000 TS 35 996 0 20 80 140 20 1005 190 50 9 235
2018363S12145 2019 115 SP EA PENNY 2019-01-06 21:00:00 TS -17.7152 153.558 main 582 525 P_____________ SH082019 -17.7152 153.558 TS 35 995 0 45 80 122 35 1005 185 45 9 245
2018363S12145 2019 115 SP EA PENNY 2019-01-07 00:00:00 TS -17.9000 153.100 main 525 492 O_____________ jtwc_sh SH082019 -17.9000 153.100 TS 35 995 0 70 80 105 50 1006 180 40 8 245
2018363S12145 2019 115 SP EA PENNY 2019-01-07 03:00:00 TS -18.0574 152.770 main 486 453 P_____________ SH082019 -18.0574 152.770 TS 37 993 0 62 75 97 47 1005 185 45 6 242
2018363S12145 2019 115 SP EA PENNY 2019-01-07 06:00:00 TS -18.2000 152.500 main 453 430 O_____________ jtwc_sh SH082019 -18.2000 152.500 TS 40 992 0 55 70 90 45 1005 190 50 6 240
2018363S12145 2019 115 SP EA PENNY 2019-01-07 09:00:00 TS -18.3424 152.250 main 421 391 P_____________ SH082019 -18.3424 152.250 TS 37 994 0 77 95 1005 185 50 6 238
2018363S12145 2019 115 SP EA PENNY 2019-01-07 12:00:00 TS -18.5000 152.000 main 391 352 O_____________ jtwc_sh SH082019 -18.5000 152.000 TS 35 996 0 85 100 1006 180 50 6 236
2018363S12145 2019 115 SP EA PENNY 2019-01-07 15:00:00 TS -18.6925 151.707 main 352 314 P_____________ SH082019 -18.6925 151.707 TS 35 998 0 82 102 1006 170 45 7 235
2018363S12145 2019 115 SP EA PENNY 2019-01-07 18:00:00 TS -18.9000 151.400 main 314 275 O_____________ jtwc_sh SH082019 -18.9000 151.400 TS 35 1000 0 85 80 105 70 1006 160 40 7 235
2018363S12145 2019 115 SP EA PENNY 2019-01-07 21:00:00 TS -19.0925 151.100 main 275 237 P_____________ SH082019 -19.0925 151.100 TS 32 1001 -1 1005 145 35 7 235
2018363S12145 2019 115 SP EA PENNY 2019-01-08 00:00:00 TS -19.3000 150.800 main 237 194 O_____________ jtwc_sh SH082019 -19.3000 150.800 TD 30 1002 -1 1005 130 30 7 230
2018363S12145 2019 115 SP EA PENNY 2019-01-08 03:00:00 TS -19.5725 150.500 main 194 156 P_____________ SH082019 -19.5725 150.500 TD 27 1002 -1 1005 130 30 8 229
2018363S12145 2019 115 SP EA PENNY 2019-01-08 06:00:00 TS -19.8000 150.200 main 156 123 O_____________ jtwc_sh SH082019 -19.8000 150.200 TD 25 1003 -1 1005 130 30 6 241
2018363S12145 2019 115 SP EA PENNY 2019-01-08 09:00:00 TS -19.8799 149.900 main 123 94 P_____________ SH082019 -19.8799 149.900 TD 25 1003 -1 1005 130 30 6 260
2018363S12145 2019 115 SP EA PENNY 2019-01-08 12:00:00 TS -19.9000 149.600 main 94 62 O_____________ jtwc_sh SH082019 -19.9000 149.600 TD 25 1004 -1 1005 130 30 6 262
2018363S12145 2019 115 SP EA PENNY 2019-01-08 15:00:00 TS -19.9575 149.293 main 62 39 P_____________ SH082019 -19.9575 149.293 TD 25 1004 -1 1005 145 30 6 260
2018363S12145 2019 115 SP EA PENNY 2019-01-08 18:00:00 TS -20.0000 149.000 main 39 24 O_____________ jtwc_sh SH082019 -20.0000 149.000 TD 25 1004 -1 1006 160 30 5 266
2018363S12145 2019 115 SP EA PENNY 2019-01-08 21:00:00 TS -19.9925 148.727 main 24 20 P_____________ SH082019 -19.9925 148.727 TD 25 1004 -1 1006 160 30 5 270
2018363S12145 2019 115 SP EA PENNY 2019-01-09 00:00:00 TS -20.0000 148.500 main 20 10 O_____________ jtwc_sh SH082019 -20.0000 148.500 TD 25 1005 -1 1006 160 30 4 255
2018363S12145 2019 115 SP EA PENNY 2019-01-09 03:00:00 TS -20.0849 148.357 main 15 0 P_____________ SH082019 -20.0849 148.357 TD 25 1005 -1 1006 160 30 3 235
2018363S12145 2019 115 SP EA PENNY 2019-01-09 06:00:00 TS -20.2000 148.200 main 0 0 O_____________ jtwc_sh SH082019 -20.2000 148.200 TD 25 1005 -1 1006 160 30 5 241
2018363S12145 2019 115 SP EA PENNY 2019-01-09 09:00:00 TS -20.3052 147.935 main 0 0 P_____________ SH082019 -20.3052 147.935 TD 22 1006 -1 1006 160 30 6 250
2018363S12145 2019 115 SP EA PENNY 2019-01-09 12:00:00 NR -20.4000 147.600 main 0 O_____________ jtwc_sh SH082019 -20.4000 147.600 DB 20 1007 -3 1006 160 30 7 253

Digital Typhoon Data and Search

About IBTrACS Database

This database is a web-friendly format of International Best Track Archive for Climate Stewardship (IBTrACS), a global best track data archive curated by NOAA dating back to 1842.

Updated: 2022-01-26